宮崎空港の過去48時間の天気

宮崎空港 (Miyazaki)

現在時刻: 1/23 13:16 JST (1/23 04:16 UTC) 以下の時間は現地時間です。

過去48時間のMETAR気象情報
時間 風向 風速(m/s) 視程 気温(℃) 湿度(%) 気圧(hPa) 天気現象
23 13:00 西 13 10km以上 12 47 1014
23 12:16 西北西 10 10km以上 13 44 1015
23 12:00 西北西 9 10km以上 12 44 1015
23 11:28 西 8 10km以上 12 47 1015
23 11:00 西北西 8 10km以上 13 51 1016
23 10:08 西北西 9 10km以上 12 54 1016
23 10:00 西北西 9 10km以上 11 58 1016
23 09:00 西 5 6,000m 10 71 1015
23 08:00 西 8 5,000m 9 76 1015 もや
23 07:00 西 6 10km以上 8 81 1015
23 06:10 西 5 10km以上 8 81 1014
22 21:00 西 3 10km以上 6 87 1014
22 20:00 西 5 10km以上 7 81 1014
22 19:00 西 4 10km以上 8 81 1013
22 18:00 不定 1 10km以上 10 82 1012
22 17:00 北東 3 10km以上 10 87 1011
22 16:00 東北東 2 10km以上 10 87 1010
22 15:00 北北西 2 10km以上 10 87 1009
22 14:00 不定 1 10km以上 9 87 1009
22 13:00 3 8,000m 8 93 1010 弱いしゅう雨
22 12:00 北北西 3 7,000m 8 93 1010 弱いしゅう雨
22 11:39 北北西 3 5,000m 8 93 1011 弱いしゅう雨 もや
22 11:21 北西 5 3,000m 8 93 1011 しゅう雨 もや
22 11:00 3 3,500m 8 93 1011 しゅう雨 もや
22 10:00 北北西 4 4,000m 8 100 1012 弱いしゅう雨 もや
22 09:28 北西 4 3,500m 8 100 1011 弱いしゅう雨 もや
22 09:00 北西 4 3,000m 8 100 1011 しゅう雨 もや
22 08:36 西北西 3 3,000m 8 100 1012 しゅう雨 もや
22 08:00 西北西 3 3,000m 8 93 1011 しゅう雨 もや
22 07:27 北西 4 3,500m 8 93 1011 しゅう雨 もや
22 07:00 西北西 4 3,000m 8 93 1012 しゅう雨 もや
22 06:10 西 2 4,000m 7 100 1011 弱いしゅう雨 もや
RJFM 230400Z 27026KT 9999 FEW030 12/01 Q1014
RJFM 230316Z 29019G29KT 9999 FEW030 13/01 Q1015 RMK 1CU030 A2997
RJFM 230300Z 29017KT 9999 FEW030 12/00 Q1015
RJFM 230228Z 28015G25KT 9999 FEW030 12/01 Q1015 RMK 1CU030 A2999
RJFM 230200Z 29015KT 9999 FEW030 13/03 Q1016
RJFM 230108Z 29017G29KT 9999 FEW030 12/03 Q1016 RMK 1CU030 A3000
RJFM 230100Z 29017KT 9999 FEW030 11/03 Q1016
RJFM 230000Z 27009KT 6000 FEW030 10/05 Q1015
RJFM 222300Z 28015KT 5000 BR FEW030 09/05 Q1015
RJFM 222200Z 27011KT 9999 FEW030 08/05 Q1015
RJFM 222110Z 27010KT 9999 FEW030 08/05 Q1014 RMK 1CU030 A2997
RJFM 221200Z 28006KT 9999 FEW025 06/04 Q1014
RJFM 221100Z 26009KT 9999 FEW015 SCT025 07/04 Q1014
RJFM 221000Z 26008KT 9999 FEW010 SCT025 08/05 Q1013
RJFM 220900Z VRB01KT 9999 FEW005 SCT015 BKN020 10/07 Q1012
RJFM 220800Z 05006KT 010V120 9999 FEW005 SCT015 BKN020 10/08 Q1011
RJFM 220700Z 06004KT 320V090 9999 FEW005 SCT015 BKN025 10/08 Q1010
RJFM 220600Z 33003KT 240V360 9999 FEW005 SCT010 BKN015 10/08 Q1009
RJFM 220500Z VRB02KT 9999 FEW005 SCT040 09/07 Q1009
RJFM 220400Z 35006KT 300V030 8000 -SHRA FEW006 SCT010 BKN030 08/07 Q1010
RJFM 220300Z 33006KT 290V010 7000 -SHRA FEW006 SCT010 BKN020 08/07 Q1010
RJFM 220239Z 33005KT 290V020 5000 -SHRA BR FEW006 SCT010 BKN020 08/07 Q1011 RMK 1ST006 3ST010 5CU020 A2986
RJFM 220221Z 32009KT 280V020 3000 SHRA BR FEW006 SCT010 BKN020 08/07 Q1011 RMK 1ST006 3ST010 5CU020 A2985
RJFM 220200Z 35006KT 310V040 3500 SHRA BR FEW006 SCT010 BKN020 08/07 Q1011
RJFM 220100Z 34007KT 280V360 4000 -SHRA BR FEW006 SCT010 BKN020 08/08 Q1012
RJFM 220028Z 32007KT 270V020 3500 -SHRA BR FEW006 SCT009 BKN010 08/08 Q1011 RMK 1ST006 3ST009 5ST010 A2988
RJFM 220000Z 32008KT 3000 SHRA BR FEW006 SCT007 BKN009 08/08 Q1011
RJFM 212336Z 30006KT 230V010 3000 SHRA BR FEW006 SCT007 BKN009 08/08 Q1012 RMK 1ST006 3ST007 5ST009 A2988
RJFM 212300Z 30006KT 240V360 3000 SHRA BR FEW008 BKN010 BKN015 08/07 Q1011
RJFM 212227Z 32007KT 280V350 3500 SHRA BR FEW010 BKN015 BKN020 08/07 Q1011 RMK 1ST010 5CU015 6CU020 A2988
RJFM 212200Z 29008KT 260V360 3000 SHRA BR FEW010 BKN015 BKN020 08/07 Q1012
RJFM 212110Z 28004KT 4000 -SHRA BR FEW020 SCT035 BKN045 07/07 Q1011 RMK 1CU020 3CU035 5CU045 A2987